Terminal Aerodrome Forecast
Issued by NWS Spokane, WA

Home | Current Version | Previous Version | Text Only | Print | Product List | Glossary On
Versions: 1 2 3 4 5 6 7 8 9 10 11 12
000
FTUS46 KOTX 202332
TAFGEG
TAF
KGEG 202332Z 2100/2124 20010KT P6SM FEW060 BKN200
     FM210300 18005KT P6SM SCT120 BKN200
     FM210800 18009KT P6SM VCSH SCT080 OVC110
     FM211100 19011KT P6SM FEW060 BKN090
     FM211500 22022G30KT P6SM SCT070=

USA.gov is the U.S. government's official web portal to all federal, state and local government web resources and services.